sensor_id;sensor_type;location;lat;lon;timestamp;pressure;altitude;pressure_sealevel;temperature;humidity
75942;BME280;64622;46.220;19.878;2024-03-02T00:00:30;99813.34;;;10.94;100.00
75942;BME280;64622;46.220;19.878;2024-03-02T00:02:57;99824.50;;;11.06;100.00
75942;BME280;64622;46.220;19.878;2024-03-02T00:05:23;99826.22;;;10.99;100.00
75942;BME280;64622;46.220;19.878;2024-03-02T00:07:59;99824.88;;;11.03;100.00
75942;BME280;64622;46.220;19.878;2024-03-02T00:10:33;99833.87;;;11.02;100.00
75942;BME280;64622;46.220;19.878;2024-03-02T00:13:03;99835.22;;;11.06;100.00
75942;BME280;64622;46.220;19.878;2024-03-02T00:17:57;99837.09;;;10.97;100.00
75942;BME280;64622;46.220;19.878;2024-03-02T00:20:25;99834.91;;;11.01;100.00
75942;BME280;64622;46.220;19.878;2024-03-02T00:23:15;99836.25;;;10.97;100.00
75942;BME280;64622;46.220;19.878;2024-03-02T00:25:47;99827.41;;;10.96;100.00
75942;BME280;64622;46.220;19.878;2024-03-02T00:28:23;99825.22;;;10.92;100.00
75942;BME280;64622;46.220;19.878;2024-03-02T00:31:10;99827.72;;;10.93;100.00
75942;BME280;64622;46.220;19.878;2024-03-02T00:33:45;99817.22;;;10.84;100.00
75942;BME280;64622;46.220;19.878;2024-03-02T00:36:14;99821.25;;;10.88;100.00
75942;BME280;64622;46.220;19.878;2024-03-02T00:38:49;99814.72;;;10.90;100.00
75942;BME280;64622;46.220;19.878;2024-03-02T00:46:33;99820.19;;;10.97;100.00
75942;BME280;64622;46.220;19.878;2024-03-02T00:49:03;99818.03;;;10.92;100.00
75942;BME280;64622;46.220;19.878;2024-03-02T00:51:30;99801.44;;;10.97;100.00
75942;BME280;64622;46.220;19.878;2024-03-02T00:54:00;99811.34;;;10.96;100.00
75942;BME280;64622;46.220;19.878;2024-03-02T00:56:27;99806.16;;;10.95;100.00
75942;BME280;64622;46.220;19.878;2024-03-02T00:58:54;99809.31;;;10.98;100.00
75942;BME280;64622;46.220;19.878;2024-03-02T01:01:20;99812.50;;;10.94;100.00
75942;BME280;64622;46.220;19.878;2024-03-02T01:03:48;99810.97;;;10.99;100.00
75942;BME280;64622;46.220;19.878;2024-03-02T01:06:16;99809.03;;;10.85;100.00
75942;BME280;64622;46.220;19.878;2024-03-02T01:08:43;99817.22;;;10.84;100.00
75942;BME280;64622;46.220;19.878;2024-03-02T01:11:10;99819.53;;;10.87;100.00
75942;BME280;64622;46.220;19.878;2024-03-02T01:13:36;99823.28;;;10.78;100.00
75942;BME280;64622;46.220;19.878;2024-03-02T01:16:03;99817.41;;;10.82;100.00
75942;BME280;64622;46.220;19.878;2024-03-02T01:18:30;99821.59;;;10.77;100.00
75942;BME280;64622;46.220;19.878;2024-03-02T01:20:57;99827.47;;;10.72;100.00
75942;BME280;64622;46.220;19.878;2024-03-02T01:23:24;99823.13;;;10.71;100.00
75942;BME280;64622;46.220;19.878;2024-03-02T01:25:52;99820.13;;;10.66;100.00
75942;BME280;64622;46.220;19.878;2024-03-02T01:28:19;99826.13;;;10.68;100.00
75942;BME280;64622;46.220;19.878;2024-03-02T01:30:47;99820.44;;;10.63;100.00
75942;BME280;64622;46.220;19.878;2024-03-02T01:33:14;99823.28;;;10.62;100.00
75942;BME280;64622;46.220;19.878;2024-03-02T01:35:40;99821.66;;;10.53;100.00
75942;BME280;64622;46.220;19.878;2024-03-02T01:38:06;99822.97;;;10.57;100.00
75942;BME280;64622;46.220;19.878;2024-03-02T01:40:34;99823.66;;;10.51;100.00
75942;BME280;64622;46.220;19.878;2024-03-02T01:43:01;99814.12;;;10.48;100.00
75942;BME280;64622;46.220;19.878;2024-03-02T01:45:28;99838.03;;;10.50;100.00
75942;BME280;64622;46.220;19.878;2024-03-02T01:47:55;99812.63;;;10.54;100.00
75942;BME280;64622;46.220;19.878;2024-03-02T01:50:29;99820.50;;;10.39;100.00
75942;BME280;64622;46.220;19.878;2024-03-02T01:52:57;99821.00;;;10.35;100.00
75942;BME280;64622;46.220;19.878;2024-03-02T01:55:23;99827.34;;;10.26;100.00
75942;BME280;64622;46.220;19.878;2024-03-02T01:57:51;99831.88;;;10.25;100.00
75942;BME280;64622;46.220;19.878;2024-03-02T02:00:19;99830.88;;;10.18;100.00
75942;BME280;64622;46.220;19.878;2024-03-02T02:02:48;99825.34;;;10.04;100.00
75942;BME280;64622;46.220;19.878;2024-03-02T02:05:14;99825.50;;;10.02;100.00
75942;BME280;64622;46.220;19.878;2024-03-02T02:07:41;99820.50;;;9.99;100.00
75942;BME280;64622;46.220;19.878;2024-03-02T02:10:12;99830.84;;;9.94;100.00
75942;BME280;64622;46.220;19.878;2024-03-02T02:12:39;99824.81;;;9.92;100.00
75942;BME280;64622;46.220;19.878;2024-03-02T02:15:26;99820.97;;;9.79;100.00
75942;BME280;64622;46.220;19.878;2024-03-02T02:17:55;99830.34;;;9.83;100.00
75942;BME280;64622;46.220;19.878;2024-03-02T02:20:22;99827.47;;;9.68;100.00
75942;BME280;64622;46.220;19.878;2024-03-02T02:25:24;99824.09;;;9.58;100.00
75942;BME280;64622;46.220;19.878;2024-03-02T02:27:51;99830.12;;;9.68;100.00
75942;BME280;64622;46.220;19.878;2024-03-02T02:30:21;99831.50;;;9.80;100.00
75942;BME280;64622;46.220;19.878;2024-03-02T02:32:48;99827.81;;;9.65;100.00
75942;BME280;64622;46.220;19.878;2024-03-02T02:35:15;99831.47;;;9.64;100.00
75942;BME280;64622;46.220;19.878;2024-03-02T02:37:42;99828.13;;;9.62;100.00
75942;BME280;64622;46.220;19.878;2024-03-02T02:40:10;99824.28;;;9.57;100.00
75942;BME280;64622;46.220;19.878;2024-03-02T02:42:37;99825.25;;;9.56;100.00
75942;BME280;64622;46.220;19.878;2024-03-02T02:45:03;99824.41;;;9.47;100.00
75942;BME280;64622;46.220;19.878;2024-03-02T02:47:30;99823.25;;;9.50;100.00
75942;BME280;64622;46.220;19.878;2024-03-02T02:49:57;99813.88;;;9.46;100.00
75942;BME280;64622;46.220;19.878;2024-03-02T02:52:23;99817.72;;;9.43;100.00
75942;BME280;64622;46.220;19.878;2024-03-02T02:54:50;99821.19;;;9.36;100.00
75942;BME280;64622;46.220;19.878;2024-03-02T02:57:17;99824.06;;;9.42;100.00
75942;BME280;64622;46.220;19.878;2024-03-02T02:59:43;99834.75;;;9.42;100.00
75942;BME280;64622;46.220;19.878;2024-03-02T03:02:10;99824.56;;;9.38;100.00
75942;BME280;64622;46.220;19.878;2024-03-02T03:04:36;99826.56;;;9.44;100.00
75942;BME280;64622;46.220;19.878;2024-03-02T03:07:03;99826.44;;;9.45;100.00
75942;BME280;64622;46.220;19.878;2024-03-02T03:09:30;99821.38;;;9.34;100.00
75942;BME280;64622;46.220;19.878;2024-03-02T03:11:56;99821.69;;;9.31;100.00
75942;BME280;64622;46.220;19.878;2024-03-02T03:14:23;99831.56;;;9.39;100.00
75942;BME280;64622;46.220;19.878;2024-03-02T03:16:50;99833.19;;;9.24;100.00
75942;BME280;64622;46.220;19.878;2024-03-02T03:19:16;99829.00;;;9.21;100.00
75942;BME280;64622;46.220;19.878;2024-03-02T03:21:43;99825.22;;;9.32;100.00
75942;BME280;64622;46.220;19.878;2024-03-02T03:24:10;99828.84;;;9.23;100.00
75942;BME280;64622;46.220;19.878;2024-03-02T03:26:37;99833.41;;;9.38;100.00
75942;BME280;64622;46.220;19.878;2024-03-02T03:29:03;99833.37;;;9.30;100.00
75942;BME280;64622;46.220;19.878;2024-03-02T03:31:30;99834.37;;;9.29;100.00
75942;BME280;64622;46.220;19.878;2024-03-02T03:33:56;99827.84;;;9.24;100.00
75942;BME280;64622;46.220;19.878;2024-03-02T03:36:24;99830.53;;;9.24;100.00
75942;BME280;64622;46.220;19.878;2024-03-02T03:38:51;99827.34;;;9.28;100.00
75942;BME280;64622;46.220;19.878;2024-03-02T03:41:17;99823.53;;;9.31;100.00
75942;BME280;64622;46.220;19.878;2024-03-02T03:43:43;99825.22;;;9.32;100.00
75942;BME280;64622;46.220;19.878;2024-03-02T03:46:10;99824.53;;;9.22;100.00
75942;BME280;64622;46.220;19.878;2024-03-02T03:48:37;99822.72;;;9.30;100.00
75942;BME280;64622;46.220;19.878;2024-03-02T03:51:04;99828.91;;;9.39;100.00
75942;BME280;64622;46.220;19.878;2024-03-02T03:53:30;99831.72;;;9.29;100.00
75942;BME280;64622;46.220;19.878;2024-03-02T03:55:57;99829.88;;;9.30;100.00
75942;BME280;64622;46.220;19.878;2024-03-02T03:58:23;99827.19;;;9.22;100.00
75942;BME280;64622;46.220;19.878;2024-03-02T04:00:50;99823.22;;;9.34;100.00
75942;BME280;64622;46.220;19.878;2024-03-02T04:03:17;99832.34;;;9.23;100.00
75942;BME280;64622;46.220;19.878;2024-03-02T04:05:43;99828.19;;;9.29;100.00
75942;BME280;64622;46.220;19.878;2024-03-02T04:08:10;99828.19;;;9.29;100.00
75942;BME280;64622;46.220;19.878;2024-03-02T04:10:37;99834.25;;;9.39;100.00
75942;BME280;64622;46.220;19.878;2024-03-02T04:13:04;99829.56;;;9.33;100.00
75942;BME280;64622;46.220;19.878;2024-03-02T04:15:31;99839.09;;;9.43;100.00
75942;BME280;64622;46.220;19.878;2024-03-02T04:17:57;99832.87;;;9.35;100.00
75942;BME280;64622;46.220;19.878;2024-03-02T04:20:24;99826.53;;;9.28;100.00
75942;BME280;64622;46.220;19.878;2024-03-02T04:22:51;99837.38;;;9.26;100.00
75942;BME280;64622;46.220;19.878;2024-03-02T04:25:18;99838.53;;;9.24;100.00
75942;BME280;64622;46.220;19.878;2024-03-02T04:27:45;99839.03;;;9.27;100.00
75942;BME280;64622;46.220;19.878;2024-03-02T04:30:11;99838.72;;;9.30;100.00
75942;BME280;64622;46.220;19.878;2024-03-02T04:32:38;99828.84;;;9.23;100.00
75942;BME280;64622;46.220;19.878;2024-03-02T04:35:05;99845.03;;;9.21;100.00
75942;BME280;64622;46.220;19.878;2024-03-02T04:37:34;99845.53;;;9.25;100.00
75942;BME280;64622;46.220;19.878;2024-03-02T04:40:01;99842.41;;;9.29;100.00
75942;BME280;64622;46.220;19.878;2024-03-02T04:42:28;99851.72;;;9.25;100.00
75942;BME280;64622;46.220;19.878;2024-03-02T04:44:54;99846.53;;;9.24;100.00
75942;BME280;64622;46.220;19.878;2024-03-02T04:47:20;99841.84;;;9.18;100.00
75942;BME280;64622;46.220;19.878;2024-03-02T04:49:47;99848.37;;;9.23;100.00
75942;BME280;64622;46.220;19.878;2024-03-02T04:52:13;99849.00;;;9.17;100.00
75942;BME280;64622;46.220;19.878;2024-03-02T04:54:40;99843.38;;;9.20;100.00
75942;BME280;64622;46.220;19.878;2024-03-02T04:57:25;99846.19;;;9.19;100.00
75942;BME280;64622;46.220;19.878;2024-03-02T04:59:52;99857.88;;;9.18;100.00
75942;BME280;64622;46.220;19.878;2024-03-02T05:02:18;99855.41;;;9.32;100.00
75942;BME280;64622;46.220;19.878;2024-03-02T05:04:45;99841.41;;;9.30;100.00
75942;BME280;64622;46.220;19.878;2024-03-02T05:07:12;99854.00;;;9.12;100.00
75942;BME280;64622;46.220;19.878;2024-03-02T05:09:39;99861.00;;;9.13;100.00
75942;BME280;64622;46.220;19.878;2024-03-02T05:12:06;99856.81;;;9.11;100.00
75942;BME280;64622;46.220;19.878;2024-03-02T05:14:36;99863.37;;;9.16;100.00
75942;BME280;64622;46.220;19.878;2024-03-02T05:17:02;99865.88;;;9.18;100.00
75942;BME280;64622;46.220;19.878;2024-03-02T05:19:29;99864.69;;;9.12;100.00
75942;BME280;64622;46.220;19.878;2024-03-02T05:21:55;99862.66;;;9.06;100.00
75942;BME280;64622;46.220;19.878;2024-03-02T05:24:22;99858.16;;;9.07;100.00
75942;BME280;64622;46.220;19.878;2024-03-02T05:26:48;99864.47;;;9.06;100.00
75942;BME280;64622;46.220;19.878;2024-03-02T05:29:15;99866.34;;;9.13;100.00
75942;BME280;64622;46.220;19.878;2024-03-02T05:31:42;99863.16;;;9.02;100.00
75942;BME280;64622;46.220;19.878;2024-03-02T05:34:08;99871.75;;;8.96;100.00
75942;BME280;64622;46.220;19.878;2024-03-02T05:36:35;99875.91;;;8.90;100.00
75942;BME280;64622;46.220;19.878;2024-03-02T05:39:01;99870.38;;;8.84;100.00
75942;BME280;64622;46.220;19.878;2024-03-02T05:41:30;99875.41;;;8.87;100.00
75942;BME280;64622;46.220;19.878;2024-03-02T05:43:57;99871.59;;;8.97;100.00
75942;BME280;64622;46.220;19.878;2024-03-02T05:46:24;99879.22;;;8.84;100.00
75942;BME280;64622;46.220;19.878;2024-03-02T05:48:51;99887.09;;;8.94;100.00
75942;BME280;64622;46.220;19.878;2024-03-02T05:51:17;99883.56;;;8.85;100.00
75942;BME280;64622;46.220;19.878;2024-03-02T05:53:43;99885.38;;;8.85;100.00
75942;BME280;64622;46.220;19.878;2024-03-02T05:56:10;99890.34;;;8.80;100.00
75942;BME280;64622;46.220;19.878;2024-03-02T05:58:37;99887.91;;;8.86;100.00
75942;BME280;64622;46.220;19.878;2024-03-02T06:01:27;99887.75;;;8.88;100.00
75942;BME280;64622;46.220;19.878;2024-03-02T06:03:58;99895.41;;;8.91;100.00
75942;BME280;64622;46.220;19.878;2024-03-02T06:06:25;99898.28;;;8.89;100.00
75942;BME280;64622;46.220;19.878;2024-03-02T06:08:51;99903.59;;;8.89;100.00
75942;BME280;64622;46.220;19.878;2024-03-02T06:11:21;99898.62;;;8.69;100.00
75942;BME280;64622;46.220;19.878;2024-03-02T06:13:47;99896.13;;;8.93;100.00
75942;BME280;64622;46.220;19.878;2024-03-02T06:16:13;99900.31;;;8.95;100.00
75942;BME280;64622;46.220;19.878;2024-03-02T06:18:40;99895.75;;;8.88;100.00
75942;BME280;64622;46.220;19.878;2024-03-02T06:21:07;99892.94;;;8.89;100.00
75942;BME280;64622;46.220;19.878;2024-03-02T06:23:34;99894.81;;;8.97;100.00
75942;BME280;64622;46.220;19.878;2024-03-02T06:26:01;99897.84;;;9.02;100.00
75942;BME280;64622;46.220;19.878;2024-03-02T06:28:28;99895.25;;;8.84;100.00
75942;BME280;64622;46.220;19.878;2024-03-02T06:30:55;99894.91;;;8.87;100.00
75942;BME280;64622;46.220;19.878;2024-03-02T06:33:21;99900.75;;;8.91;100.00
75942;BME280;64622;46.220;19.878;2024-03-02T06:35:48;99904.72;;;9.12;100.00
75942;BME280;64622;46.220;19.878;2024-03-02T06:38:15;99907.66;;;9.01;100.00
75942;BME280;64622;46.220;19.878;2024-03-02T06:40:41;99903.28;;;8.92;100.00
75942;BME280;64622;46.220;19.878;2024-03-02T06:43:08;99914.00;;;9.00;100.00
75942;BME280;64622;46.220;19.878;2024-03-02T06:45:35;99899.72;;;9.09;100.00
75942;BME280;64622;46.220;19.878;2024-03-02T06:48:02;99908.63;;;8.92;100.00
75942;BME280;64622;46.220;19.878;2024-03-02T06:50:28;99914.59;;;9.20;100.00
75942;BME280;64622;46.220;19.878;2024-03-02T06:52:55;99909.69;;;9.07;100.00
75942;BME280;64622;46.220;19.878;2024-03-02T06:55:22;99913.09;;;9.17;100.00
75942;BME280;64622;46.220;19.878;2024-03-02T06:57:51;99916.16;;;8.97;100.00
75942;BME280;64622;46.220;19.878;2024-03-02T07:00:19;99924.31;;;8.95;100.00
75942;BME280;64622;46.220;19.878;2024-03-02T07:02:46;99923.41;;;9.12;100.00
75942;BME280;64622;46.220;19.878;2024-03-02T07:05:13;99925.94;;;9.14;100.00
75942;BME280;64622;46.220;19.878;2024-03-02T07:07:39;99925.78;;;9.15;100.00
75942;BME280;64622;46.220;19.878;2024-03-02T07:10:07;99926.28;;;9.19;100.00
75942;BME280;64622;46.220;19.878;2024-03-02T07:12:34;99930.13;;;9.16;100.00
75942;BME280;64622;46.220;19.878;2024-03-02T07:15:02;99931.63;;;9.19;100.00
75942;BME280;64622;46.220;19.878;2024-03-02T07:17:31;99930.47;;;9.21;100.00
75942;BME280;64622;46.220;19.878;2024-03-02T07:19:58;99928.53;;;9.06;100.00
75942;BME280;64622;46.220;19.878;2024-03-02T07:22:25;99936.69;;;9.30;100.00
75942;BME280;64622;46.220;19.878;2024-03-02T07:24:51;99934.81;;;9.22;100.00
75942;BME280;64622;46.220;19.878;2024-03-02T07:27:18;99937.91;;;9.35;100.00
75942;BME280;64622;46.220;19.878;2024-03-02T07:29:44;99926.50;;;9.33;100.00
75942;BME280;64622;46.220;19.878;2024-03-02T07:32:11;99928.38;;;9.33;100.00
75942;BME280;64622;46.220;19.878;2024-03-02T07:34:37;99922.69;;;9.36;100.00
75942;BME280;64622;46.220;19.878;2024-03-02T07:37:05;99926.06;;;9.38;100.00
75942;BME280;64622;46.220;19.878;2024-03-02T07:39:32;99933.72;;;9.41;100.00
75942;BME280;64622;46.220;19.878;2024-03-02T07:41:59;99938.47;;;9.47;100.00
75942;BME280;64622;46.220;19.878;2024-03-02T07:44:26;99926.84;;;9.30;100.00
75942;BME280;64622;46.220;19.878;2024-03-02T07:46:53;99943.53;;;9.32;100.00
75942;BME280;64622;46.220;19.878;2024-03-02T07:49:20;99939.50;;;9.28;100.00
75942;BME280;64622;46.220;19.878;2024-03-02T07:51:46;99944.03;;;9.28;100.00
75942;BME280;64622;46.220;19.878;2024-03-02T07:54:13;99944.78;;;9.46;100.00
75942;BME280;64622;46.220;19.878;2024-03-02T07:56:40;99948.13;;;9.48;100.00
75942;BME280;64622;46.220;19.878;2024-03-02T07:59:06;99945.63;;;9.46;100.00
75942;BME280;64622;46.220;19.878;2024-03-02T08:01:34;99945.31;;;9.57;100.00
75942;BME280;64622;46.220;19.878;2024-03-02T08:04:01;99956.16;;;9.56;100.00
75942;BME280;64622;46.220;19.878;2024-03-02T08:06:30;99946.13;;;9.50;100.00
75942;BME280;64622;46.220;19.878;2024-03-02T08:08:57;99963.66;;;9.44;100.00
75942;BME280;64622;46.220;19.878;2024-03-02T08:11:25;99961.16;;;9.51;100.00
75942;BME280;64622;46.220;19.878;2024-03-02T08:13:53;99959.53;;;9.58;100.00
75942;BME280;64622;46.220;19.878;2024-03-02T08:16:22;99962.00;;;9.51;100.00
75942;BME280;64622;46.220;19.878;2024-03-02T08:18:49;99946.84;;;9.60;100.00
75942;BME280;64622;46.220;19.878;2024-03-02T08:21:16;99961.06;;;9.60;100.00
75942;BME280;64622;46.220;19.878;2024-03-02T08:23:43;99963.00;;;9.50;100.00
75942;BME280;64622;46.220;19.878;2024-03-02T08:26:11;99972.34;;;9.46;100.00
75942;BME280;64622;46.220;19.878;2024-03-02T08:28:37;99960.78;;;9.46;100.00
75942;BME280;64622;46.220;19.878;2024-03-02T08:31:06;99951.28;;;9.43;100.00
75942;BME280;64622;46.220;19.878;2024-03-02T08:33:34;99960.41;;;9.66;100.00
75942;BME280;64622;46.220;19.878;2024-03-02T08:36:01;99973.75;;;9.66;100.00
75942;BME280;64622;46.220;19.878;2024-03-02T08:38:29;99973.44;;;9.36;100.00
75942;BME280;64622;46.220;19.878;2024-03-02T08:40:55;99971.69;;;9.52;100.00
75942;BME280;64622;46.220;19.878;2024-03-02T08:43:22;99966.25;;;9.70;100.00
75942;BME280;64622;46.220;19.878;2024-03-02T08:45:49;99963.22;;;9.65;100.00
75942;BME280;64622;46.220;19.878;2024-03-02T08:48:17;99967.31;;;9.77;100.00
75942;BME280;64622;46.220;19.878;2024-03-02T08:50:43;99974.41;;;9.60;100.00
75942;BME280;64622;46.220;19.878;2024-03-02T08:53:10;99960.72;;;9.63;100.00
75942;BME280;64622;46.220;19.878;2024-03-02T08:55:37;99972.19;;;9.56;100.00
75942;BME280;64622;46.220;19.878;2024-03-02T08:58:03;99973.16;;;9.80;100.00
75942;BME280;64622;46.220;19.878;2024-03-02T09:00:30;99964.63;;;9.77;100.00
75942;BME280;64622;46.220;19.878;2024-03-02T09:02:57;99974.31;;;9.78;100.00
75942;BME280;64622;46.220;19.878;2024-03-02T09:05:23;99970.44;;;9.72;100.00
75942;BME280;64622;46.220;19.878;2024-03-02T09:07:49;99986.63;;;9.71;100.00
75942;BME280;64622;46.220;19.878;2024-03-02T09:10:17;99977.78;;;9.70;100.00
75942;BME280;64622;46.220;19.878;2024-03-02T09:12:43;99985.31;;;9.75;100.00
75942;BME280;64622;46.220;19.878;2024-03-02T09:15:09;99983.69;;;9.82;100.00
75942;BME280;64622;46.220;19.878;2024-03-02T09:17:36;99977.50;;;9.81;100.00
75942;BME280;64622;46.220;19.878;2024-03-02T09:20:04;99980.03;;;9.91;100.00
75942;BME280;64622;46.220;19.878;2024-03-02T09:22:31;99980.56;;;9.94;100.00
75942;BME280;64622;46.220;19.878;2024-03-02T09:24:59;99990.22;;;9.87;100.00
75942;BME280;64622;46.220;19.878;2024-03-02T09:27:25;99991.16;;;10.12;100.00
75942;BME280;64622;46.220;19.878;2024-03-02T09:29:51;99979.06;;;10.00;100.00
75942;BME280;64622;46.220;19.878;2024-03-02T09:32:18;99990.12;;;10.05;100.00
75942;BME280;64622;46.220;19.878;2024-03-02T09:34:45;99995.59;;;10.03;100.00
75942;BME280;64622;46.220;19.878;2024-03-02T09:37:12;99997.47;;;10.03;100.00
75942;BME280;64622;46.220;19.878;2024-03-02T09:39:39;99996.16;;;10.15;100.00
75942;BME280;64622;46.220;19.878;2024-03-02T09:42:06;99987.84;;;10.18;100.00
75942;BME280;64622;46.220;19.878;2024-03-02T09:44:33;99988.19;;;10.47;100.00
75942;BME280;64622;46.220;19.878;2024-03-02T09:47:00;99987.69;;;10.35;100.00
75942;BME280;64622;46.220;19.878;2024-03-02T09:49:26;99992.03;;;10.28;100.00
75942;BME280;64622;46.220;19.878;2024-03-02T09:51:53;100004.56;;;10.36;100.00
75942;BME280;64622;46.220;19.878;2024-03-02T09:54:20;99992.53;;;10.24;100.00
75942;BME280;64622;46.220;19.878;2024-03-02T09:56:47;100004.38;;;10.29;100.00
75942;BME280;64622;46.220;19.878;2024-03-02T09:59:14;99997.03;;;10.39;100.00
75942;BME280;64622;46.220;19.878;2024-03-02T10:02:00;99989.00;;;10.23;100.00
75942;BME280;64622;46.220;19.878;2024-03-02T10:04:29;99997.38;;;10.20;100.00
75942;BME280;64622;46.220;19.878;2024-03-02T10:07:23;100003.56;;;10.29;100.00
75942;BME280;64622;46.220;19.878;2024-03-02T10:09:50;99991.84;;;10.30;100.00
75942;BME280;64622;46.220;19.878;2024-03-02T10:12:19;99994.41;;;10.79;100.00
75942;BME280;64622;46.220;19.878;2024-03-02T10:14:45;99994.91;;;10.67;100.00
75942;BME280;64622;46.220;19.878;2024-03-02T10:17:17;99984.38;;;10.81;100.00
75942;BME280;64622;46.220;19.878;2024-03-02T10:19:44;99978.84;;;10.67;100.00
75942;BME280;64622;46.220;19.878;2024-03-02T10:22:10;99974.00;;;10.86;100.00
75942;BME280;64622;46.220;19.878;2024-03-02T10:24:41;99975.81;;;11.10;100.00
75942;BME280;64622;46.220;19.878;2024-03-02T10:27:15;99980.00;;;11.20;100.00
75942;BME280;64622;46.220;19.878;2024-03-02T10:29:42;99983.97;;;11.32;100.00
75942;BME280;64622;46.220;19.878;2024-03-02T10:32:11;99977.44;;;11.43;100.00
75942;BME280;64622;46.220;19.878;2024-03-02T10:34:42;99972.78;;;11.29;100.00
75942;BME280;64622;46.220;19.878;2024-03-02T10:37:11;99980.66;;;11.14;100.00
75942;BME280;64622;46.220;19.878;2024-03-02T10:39:39;99962.22;;;11.19;100.00
75942;BME280;64622;46.220;19.878;2024-03-02T10:42:06;99976.16;;;11.23;100.00
75942;BME280;64622;46.220;19.878;2024-03-02T10:44:34;99972.78;;;11.29;100.00
75942;BME280;64622;46.220;19.878;2024-03-02T10:47:03;99970.81;;;11.69;100.00
75942;BME280;64622;46.220;19.878;2024-03-02T10:49:31;99966.06;;;11.33;100.00
75942;BME280;64622;46.220;19.878;2024-03-02T10:51:58;99956.22;;;11.72;100.00
75942;BME280;64622;46.220;19.878;2024-03-02T10:54:25;99966.47;;;11.68;100.00
75942;BME280;64622;46.220;19.878;2024-03-02T10:56:53;99957.09;;;12.03;100.00
75942;BME280;64622;46.220;19.878;2024-03-02T10:59:33;99957.44;;;12.00;100.00
75942;BME280;64622;46.220;19.878;2024-03-02T11:02:01;99951.22;;;11.99;100.00
75942;BME280;64622;46.220;19.878;2024-03-02T11:04:29;99957.94;;;11.65;100.00
75942;BME280;64622;46.220;19.878;2024-03-02T11:07:00;99956.94;;;11.66;100.00
75942;BME280;64622;46.220;19.878;2024-03-02T11:09:28;99962.41;;;11.80;100.00
75942;BME280;64622;46.220;19.878;2024-03-02T11:12:30;99948.88;;;11.66;100.00
75942;BME280;64622;46.220;19.878;2024-03-02T11:14:58;99944.84;;;11.70;100.00
75942;BME280;64622;46.220;19.878;2024-03-02T11:17:25;99948.34;;;12.09;100.00
75942;BME280;64622;46.220;19.878;2024-03-02T11:19:52;99949.13;;;12.62;100.00
75942;BME280;64622;46.220;19.878;2024-03-02T11:22:19;99950.63;;;11.89;100.00
75942;BME280;64622;46.220;19.878;2024-03-02T11:24:51;99942.41;;;11.91;100.00
75942;BME280;64622;46.220;19.878;2024-03-02T11:28:10;99960.41;;;11.74;100.00
75942;BME280;64622;46.220;19.878;2024-03-02T11:33:00;99949.38;;;11.69;100.00
75942;BME280;64622;46.220;19.878;2024-03-02T11:35:27;99950.91;;;11.94;100.00
75942;BME280;64622;46.220;19.878;2024-03-02T11:37:57;99942.44;;;12.13;100.00
75942;BME280;64622;46.220;19.878;2024-03-02T11:40:26;99949.47;;;12.37;100.00
75942;BME280;64622;46.220;19.878;2024-03-02T11:42:54;99950.81;;;12.41;100.00
75942;BME280;64622;46.220;19.878;2024-03-02T11:45:28;99951.78;;;12.48;100.00
75942;BME280;64622;46.220;19.878;2024-03-02T11:47:56;99941.94;;;12.18;100.00
75942;BME280;64622;46.220;19.878;2024-03-02T11:50:31;99941.78;;;12.11;100.00
75942;BME280;64622;46.220;19.878;2024-03-02T11:53:00;99938.09;;;12.57;100.00
75942;BME280;64622;46.220;19.878;2024-03-02T11:55:28;99947.81;;;12.58;100.00
75942;BME280;64622;46.220;19.878;2024-03-02T11:57:56;99945.56;;;12.70;100.00
75942;BME280;64622;46.220;19.878;2024-03-02T12:00:23;99939.87;;;12.65;100.00
75942;BME280;64622;46.220;19.878;2024-03-02T12:03:09;99947.03;;;12.72;100.00
75942;BME280;64622;46.220;19.878;2024-03-02T12:05:36;99946.28;;;12.64;100.00
75942;BME280;64622;46.220;19.878;2024-03-02T12:08:04;99955.75;;;12.52;100.00
75942;BME280;64622;46.220;19.878;2024-03-02T12:10:32;99948.84;;;12.57;100.00
75942;BME280;64622;46.220;19.878;2024-03-02T12:13:03;99951.03;;;12.76;100.00
75942;BME280;64622;46.220;19.878;2024-03-02T12:15:32;99947.44;;;12.84;100.00
75942;BME280;64622;46.220;19.878;2024-03-02T12:18:00;99951.50;;;12.80;100.00
75942;BME280;64622;46.220;19.878;2024-03-02T12:20:29;99942.03;;;12.69;100.00
75942;BME280;64622;46.220;19.878;2024-03-02T12:23:00;99941.84;;;12.71;100.00
75942;BME280;64622;46.220;19.878;2024-03-02T12:25:27;99940.75;;;12.80;100.00
75942;BME280;64622;46.220;19.878;2024-03-02T12:27:55;99950.38;;;12.97;100.00
75942;BME280;64622;46.220;19.878;2024-03-02T12:30:23;99942.66;;;12.94;100.00
75942;BME280;64622;46.220;19.878;2024-03-02T12:32:50;99946.97;;;12.80;100.00
75942;BME280;64622;46.220;19.878;2024-03-02T12:35:18;99947.44;;;12.84;100.00
75942;BME280;64622;46.220;19.878;2024-03-02T12:37:49;99949.34;;;12.98;100.00
75942;BME280;64622;46.220;19.878;2024-03-02T12:40:20;99953.28;;;13.10;100.00
75942;BME280;64622;46.220;19.878;2024-03-02T12:42:49;99944.38;;;12.87;100.00
75942;BME280;64622;46.220;19.878;2024-03-02T12:45:17;99941.63;;;12.95;100.00
75942;BME280;64622;46.220;19.878;2024-03-02T12:47:50;99950.88;;;12.92;100.00
75942;BME280;64622;46.220;19.878;2024-03-02T12:50:20;99939.03;;;13.24;100.00
75942;BME280;64622;46.220;19.878;2024-03-02T12:52:54;99943.00;;;13.42;100.00
75942;BME280;64622;46.220;19.878;2024-03-02T12:55:22;99949.22;;;13.28;100.00
75942;BME280;64622;46.220;19.878;2024-03-02T12:57:50;99955.16;;;13.24;100.00
75942;BME280;64622;46.220;19.878;2024-03-02T13:00:19;99941.06;;;12.85;100.00
75942;BME280;64622;46.220;19.878;2024-03-02T13:02:47;99942.44;;;13.32;100.00